Portada
METAR-TAF:

METAR-TAF

Aeroports :

Elat, Israel

latitud: 29-43-25N, longitud: 35-00-41E, altitud: 88 m

Observació

L'informe es va fer fa 3 hores i 52 minuts, a les 03:50 UTC
Vent 9 kt del Nord/Nord-Est
Temperatura 15°C
Humitat 77%
Pressió 1017 hPa
Visibilitat: 9000 m
Escasses núvols a una alçada de 4000 ft

METAR: LLER 060350Z 02009KT 9000 FEW040 15/11 Q1017

Hora: 09:42 (07:42 UTC)

Pronòstic

L'informe es va fer fa 2 hores i 33 minuts, a les 05:09 UTC
Pronòstic vàlid del 06 a les 06 UTC al 07 a les 06 UTC
Vent 10 kt del Nord
Visibilitat 10 km o més
Núvols disperses a una alçada de 4500 ft
Evolucionant progressivament
l' 06 a les 07 UTC al 06 a les 09 UTC
Vent 15 kt del Nord
Escasses núvols a una alçada de 5000 ft
Evolucionant progressivament
l' 06 a les 17 UTC al 06 a les 19 UTC
Vent 10 kt del Nord

TAF: LLER 060509Z 0606/0706 35010KT 9999 SCT045 BECMG 0607/0609 01015KT FEW050 BECMG 0617/0619 35010KT TX24/0613Z TN13/0704Z

Observacions i pronòstics meteorològics de més de 4000 aeroports (METAR i TAF).

Les estacions disponibles són els punts grocs i vermells al mapa.

Posi el ratolí al punt desitjat per veure el nom de l'estació.

Feu clic per veure les observacions i els pronòstics meteorològics.

Per canviar el mapa: feu clic els botons verds amb una creu de color negre per apropar; al botó verd amb un guió per allunyar la imatge; o en les fletxes verdes per a mapes adjacents.


METAR-TAF: